Time;durP1;ratioP1;P1;durP2;ratioP2;P2;SDS_P1;SDS_P2;PMS_P1;PMS_P2;Temp;Humidity;BMP_temperature;BMP_pressure;BME280_temperature;BME280_humidity;BME280_pressure;Samples;Min_cycle;Max_cycle;Signal;HPM_P1;HPM_P2
2021/03/19 00:01:03;;;;;;;27.97;12.70;;;1.80;99.90;;;;;;4177827;28;20493;-57
2021/03/19 00:03:04;;;;;;;31.53;13.00;;;1.90;99.90;;;;;;4178760;28;20541;-58
2021/03/19 00:05:08;;;;;;;24.67;12.00;;;1.90;99.90;;;;;;4178017;28;20503;-55
2021/03/19 00:07:11;;;;;;;26.00;12.67;;;1.80;99.90;;;;;;4177134;28;20514;-55
2021/03/19 00:09:12;;;;;;;26.77;12.20;;;1.80;99.90;;;;;;4178188;28;20506;-56
2021/03/19 00:11:14;;;;;;;28.03;12.03;;;1.70;99.90;;;;;;4178323;28;20548;-55
2021/03/19 00:13:15;;;;;;;31.67;14.33;;;1.70;99.90;;;;;;4178925;28;20859;-55
2021/03/19 00:15:18;;;;;;;33.20;14.30;;;1.70;99.90;;;;;;4178708;28;20997;-54
2021/03/19 00:17:19;;;;;;;29.97;13.53;;;1.70;99.90;;;;;;4177548;28;20965;-56
2021/03/19 00:19:21;;;;;;;29.90;13.47;;;1.80;99.90;;;;;;4177402;28;20465;-55
2021/03/19 00:21:23;;;;;;;28.60;12.27;;;1.80;99.90;;;;;;4177759;28;21069;-54
2021/03/19 00:23:25;;;;;;;27.93;12.70;;;1.80;99.90;;;;;;4180321;28;20484;-55
2021/03/19 00:25:27;;;;;;;29.33;12.67;;;1.80;99.90;;;;;;4182276;28;21180;-56
2021/03/19 00:27:29;;;;;;;30.47;12.50;;;1.70;99.90;;;;;;4181008;28;21439;-55
2021/03/19 00:29:30;;;;;;;26.63;12.50;;;1.80;99.90;;;;;;4180607;28;20579;-55
2021/03/19 00:31:31;;;;;;;26.03;11.40;;;1.80;99.90;;;;;;4180496;28;20488;-55
2021/03/19 00:33:33;;;;;;;26.77;12.10;;;1.80;99.90;;;;;;4180964;28;20470;-56
2021/03/19 00:35:34;;;;;;;25.13;12.13;;;1.80;99.90;;;;;;4181123;28;20624;-55
2021/03/19 00:37:36;;;;;;;24.67;12.17;;;1.70;99.90;;;;;;4180603;28;20463;-56
2021/03/19 00:39:39;;;;;;;25.50;12.07;;;1.60;99.90;;;;;;4180642;28;20978;-55
2021/03/19 00:41:41;;;;;;;25.07;12.10;;;1.50;99.90;;;;;;4180915;28;20512;-56
2021/03/19 00:43:42;;;;;;;33.63;12.63;;;1.50;99.90;;;;;;4180747;28;20554;-56
2021/03/19 00:45:45;;;;;;;32.43;13.60;;;1.50;99.90;;;;;;4180821;28;20461;-56
2021/03/19 00:47:47;;;;;;;39.47;13.83;;;1.50;99.90;;;;;;4180452;28;20481;-56
2021/03/19 00:49:48;;;;;;;33.53;14.90;;;1.50;99.90;;;;;;4180169;28;20594;-55
2021/03/19 00:51:49;;;;;;;30.97;13.87;;;1.50;99.90;;;;;;4180932;28;20492;-56
2021/03/19 00:53:51;;;;;;;32.23;13.37;;;1.50;99.90;;;;;;4180637;28;20512;-56
2021/03/19 00:55:55;;;;;;;36.47;14.53;;;1.50;99.90;;;;;;4180740;28;20476;-56
2021/03/19 00:57:57;;;;;;;31.33;14.20;;;1.60;99.90;;;;;;4179893;28;20534;-56
2021/03/19 00:59:58;;;;;;;35.73;15.47;;;1.60;99.90;;;;;;4180330;28;20484;-56
2021/03/19 01:02:00;;;;;;;35.10;14.07;;;1.60;99.90;;;;;;4180748;28;20522;-56
2021/03/19 01:04:02;;;;;;;29.17;13.73;;;1.60;99.90;;;;;;4180583;28;20473;-56
2021/03/19 01:06:03;;;;;;;33.77;14.47;;;1.60;99.90;;;;;;4180456;28;20483;-56
2021/03/19 01:08:06;;;;;;;34.70;13.57;;;1.60;99.90;;;;;;4179957;28;20557;-56
2021/03/19 01:10:10;;;;;;;35.27;14.30;;;1.60;99.90;;;;;;4179962;28;20563;-55
2021/03/19 01:12:12;;;;;;;24.43;11.53;;;1.60;99.90;;;;;;4180400;28;20526;-55
2021/03/19 01:14:15;;;;;;;26.33;11.30;;;1.70;99.90;;;;;;4179683;28;20479;-55
2021/03/19 01:16:16;;;;;;;24.03;11.27;;;1.70;99.90;;;;;;4180857;28;20492;-56
2021/03/19 01:18:21;;;;;;;29.70;12.80;;;1.80;99.90;;;;;;4180077;28;20539;-56
2021/03/19 01:20:25;;;;;;;27.93;12.60;;;1.80;99.90;;;;;;4180281;28;20477;-57
2021/03/19 01:22:27;;;;;;;29.87;11.77;;;1.80;99.90;;;;;;4179722;28;20487;-55
2021/03/19 01:24:29;;;;;;;27.70;11.93;;;1.80;99.90;;;;;;4179412;28;20470;-56
2021/03/19 01:26:30;;;;;;;25.47;11.93;;;1.70;99.90;;;;;;4180364;28;20499;-57
2021/03/19 01:28:32;;;;;;;27.87;11.07;;;1.80;99.90;;;;;;4178895;28;20474;-56
2021/03/19 01:30:36;;;;;;;20.47;9.90;;;1.70;99.90;;;;;;4180058;28;20525;-54
2021/03/19 01:32:38;;;;;;;26.40;11.07;;;1.70;99.90;;;;;;4179509;28;20481;-56
2021/03/19 01:34:40;;;;;;;23.47;10.37;;;1.80;99.90;;;;;;4178334;28;20469;-56
2021/03/19 01:36:41;;;;;;;21.23;9.33;;;1.70;99.90;;;;;;4180654;28;20465;-56
2021/03/19 01:38:42;;;;;;;24.53;9.30;;;1.70;99.90;;;;;;4179971;28;20485;-56
2021/03/19 01:40:45;;;;;;;20.00;9.17;;;1.70;99.90;;;;;;4179985;28;20469;-56
2021/03/19 01:42:47;;;;;;;21.17;9.17;;;1.70;99.90;;;;;;4178834;28;20489;-57
2021/03/19 01:45:30;;;;;;;18.77;8.83;;;1.70;99.90;;;;;;4179726;28;20477;-56
2021/03/19 01:48:09;;;;;;;19.63;8.30;;;1.70;99.90;;;;;;4158349;28;20457;-56
2021/03/19 01:50:48;;;;;;;16.77;7.50;;;1.70;99.90;;;;;;4179169;28;20468;-56
2021/03/19 01:53:27;;;;;;;20.30;7.30;;;1.70;99.90;;;;;;4179723;28;20542;-56
2021/03/19 01:56:05;;;;;;;15.00;6.93;;;1.60;99.90;;;;;;4179720;28;20484;-56
2021/03/19 01:58:44;;;;;;;15.57;5.83;;;1.60;99.90;;;;;;4178928;28;20479;-56
2021/03/19 02:01:21;;;;;;;14.03;6.43;;;1.50;99.90;;;;;;4178054;28;20495;-56
2021/03/19 02:04:00;;;;;;;13.40;6.50;;;1.50;99.90;;;;;;4156380;28;21058;-56
2021/03/19 02:06:39;;;;;;;15.03;6.20;;;1.40;99.90;;;;;;4179456;28;20472;-56
2021/03/19 02:09:18;;;;;;;12.70;6.27;;;1.30;99.90;;;;;;4179385;28;20508;-57
2021/03/19 02:11:56;;;;;;;14.43;6.53;;;1.30;99.90;;;;;;4179200;28;20469;-56
2021/03/19 02:14:35;;;;;;;14.67;6.63;;;1.30;99.90;;;;;;4179773;28;20479;-56
2021/03/19 02:17:14;;;;;;;13.27;6.27;;;1.20;99.90;;;;;;4179390;28;20475;-55
2021/03/19 02:19:53;;;;;;;12.60;5.93;;;1.20;99.90;;;;;;4180372;28;21375;-56
2021/03/19 02:22:32;;;;;;;14.03;6.30;;;1.10;99.90;;;;;;4179275;28;20483;-56
2021/03/19 02:25:10;;;;;;;12.73;5.87;;;1.00;99.90;;;;;;4180235;28;20473;-56
2021/03/19 02:27:49;;;;;;;12.77;6.53;;;1.00;99.90;;;;;;4178735;28;20474;-56
2021/03/19 02:30:28;;;;;;;11.77;5.90;;;0.90;99.90;;;;;;4179191;28;20477;-56
2021/03/19 02:32:31;;;;;;;13.00;6.03;;;0.80;99.90;;;;;;4178918;28;20557;-57
2021/03/19 02:34:38;;;;;;;12.83;5.97;;;0.60;99.90;;;;;;4178790;28;20479;-56
2021/03/19 02:36:39;;;;;;;15.47;6.53;;;0.60;99.90;;;;;;4178189;28;20461;-56
2021/03/19 02:38:40;;;;;;;12.97;6.90;;;0.50;99.90;;;;;;4179495;28;21060;-56
2021/03/19 02:40:42;;;;;;;12.53;5.53;;;0.50;99.90;;;;;;4179425;28;20484;-56
2021/03/19 02:42:43;;;;;;;14.87;6.43;;;0.40;99.90;;;;;;4178009;28;20471;-56
2021/03/19 02:44:45;;;;;;;16.87;7.03;;;0.40;99.90;;;;;;4178192;28;20476;-56
2021/03/19 02:46:46;;;;;;;15.90;7.17;;;0.40;99.90;;;;;;4178676;28;20465;-56
2021/03/19 02:48:48;;;;;;;17.77;7.17;;;0.40;99.90;;;;;;4178893;28;20537;-56
2021/03/19 02:50:50;;;;;;;15.63;6.73;;;0.40;99.90;;;;;;4176498;28;20476;-56
2021/03/19 02:52:52;;;;;;;18.63;7.53;;;0.50;99.90;;;;;;4177606;28;20492;-56
2021/03/19 02:54:53;;;;;;;17.17;7.73;;;0.50;99.90;;;;;;4176388;28;20461;-56
2021/03/19 02:56:55;;;;;;;18.33;7.60;;;0.60;99.90;;;;;;4178532;28;20480;-57
2021/03/19 02:58:56;;;;;;;23.23;7.70;;;0.60;99.90;;;;;;4177206;28;20467;-56
2021/03/19 03:00:57;;;;;;;20.37;6.80;;;0.70;99.90;;;;;;4177852;28;21029;-57
2021/03/19 03:02:59;;;;;;;18.33;7.27;;;0.70;99.90;;;;;;4177891;28;20471;-56
2021/03/19 03:05:01;;;;;;;18.47;8.37;;;0.80;99.90;;;;;;4177587;28;20469;-59
2021/03/19 03:07:03;;;;;;;18.80;6.97;;;0.80;99.90;;;;;;4178789;28;20620;-57
2021/03/19 03:09:07;;;;;;;21.73;8.13;;;0.80;99.90;;;;;;4178475;28;20477;-56
2021/03/19 03:11:09;;;;;;;19.63;7.13;;;0.90;99.90;;;;;;4178332;28;20582;-56
2021/03/19 03:13:11;;;;;;;18.93;7.90;;;0.90;99.90;;;;;;4176529;28;20490;-56
2021/03/19 03:15:15;;;;;;;18.83;6.87;;;0.90;99.90;;;;;;4178341;28;20476;-57
2021/03/19 03:17:17;;;;;;;20.00;7.87;;;0.90;99.90;;;;;;4178453;28;20539;-57
2021/03/19 03:19:23;;;;;;;20.13;7.77;;;0.90;99.90;;;;;;4177837;28;20473;-57
2021/03/19 03:21:25;;;;;;;20.67;8.33;;;1.00;99.90;;;;;;4178522;28;20939;-57
2021/03/19 03:23:28;;;;;;;18.83;7.97;;;1.00;99.90;;;;;;4178569;28;20814;-57
2021/03/19 03:25:30;;;;;;;17.07;7.77;;;1.00;99.90;;;;;;4177674;28;20469;-57
2021/03/19 03:27:31;;;;;;;20.30;7.80;;;1.00;99.90;;;;;;4178985;28;20534;-57
2021/03/19 03:29:33;;;;;;;19.03;7.73;;;1.10;99.90;;;;;;4178436;28;20473;-57
2021/03/19 03:31:35;;;;;;;20.37;8.13;;;1.10;99.90;;;;;;4179668;28;20519;-56
2021/03/19 03:33:36;;;;;;;21.00;8.50;;;1.10;99.90;;;;;;4178376;28;20469;-56
2021/03/19 03:35:39;;;;;;;23.83;8.63;;;1.10;99.90;;;;;;4176689;28;20480;-56
2021/03/19 03:37:42;;;;;;;24.60;9.87;;;1.00;99.90;;;;;;4177965;28;20952;-57
2021/03/19 03:39:44;;;;;;;25.17;9.70;;;1.00;99.90;;;;;;4178135;28;20488;-57
2021/03/19 03:41:45;;;;;;;26.53;9.70;;;1.00;99.90;;;;;;4177540;28;21069;-57
2021/03/19 03:43:47;;;;;;;27.80;11.27;;;0.90;99.90;;;;;;4177967;28;20476;-57
2021/03/19 03:45:49;;;;;;;22.43;8.93;;;1.00;99.90;;;;;;4177596;28;21155;-57
2021/03/19 03:47:51;;;;;;;24.67;10.47;;;0.90;99.90;;;;;;4177766;28;20460;-56
2021/03/19 03:49:52;;;;;;;27.93;9.77;;;1.00;99.90;;;;;;4177943;28;20487;-56
2021/03/19 03:51:54;;;;;;;22.23;9.73;;;1.00;99.90;;;;;;4178281;28;20905;-56
2021/03/19 03:53:57;;;;;;;23.77;9.83;;;1.00;99.90;;;;;;4177826;28;20503;-56
2021/03/19 03:55:59;;;;;;;23.67;9.47;;;1.00;99.90;;;;;;4176940;28;20484;-55
2021/03/19 03:58:00;;;;;;;26.20;10.43;;;1.00;99.90;;;;;;4177014;28;20469;-56
2021/03/19 04:00:02;;;;;;;24.03;9.70;;;1.00;99.90;;;;;;4178949;28;21018;-56
2021/03/19 04:02:16;;;;;;;23.33;9.83;;;1.00;99.90;;;;;;4176698;28;20502;-56
2021/03/19 04:04:18;;;;;;;27.10;10.53;;;1.00;99.90;;;;;;4178001;28;20465;-56
2021/03/19 04:06:19;;;;;;;22.80;9.40;;;0.90;99.90;;;;;;4178073;28;20503;-56
2021/03/19 04:08:23;;;;;;;23.43;8.90;;;0.90;99.90;;;;;;4178660;28;20480;-56
2021/03/19 04:10:25;;;;;;;20.67;9.17;;;0.80;99.90;;;;;;4178119;28;20768;-57
2021/03/19 04:12:27;;;;;;;21.60;9.63;;;0.70;99.90;;;;;;4177708;28;20823;-57
2021/03/19 04:14:28;;;;;;;21.03;8.87;;;0.50;99.90;;;;;;4176454;28;20499;-56
2021/03/19 04:16:30;;;;;;;24.40;9.23;;;0.40;99.90;;;;;;4177375;28;20489;-56
2021/03/19 04:18:32;;;;;;;20.27;8.60;;;0.30;99.90;;;;;;4177382;28;20469;-56
2021/03/19 04:20:34;;;;;;;25.17;10.00;;;0.30;99.90;;;;;;4177831;28;20465;-56
2021/03/19 04:22:35;;;;;;;25.93;10.13;;;0.20;99.90;;;;;;4177575;28;20468;-56
2021/03/19 04:24:37;;;;;;;26.93;10.77;;;0.10;99.90;;;;;;4176913;28;20476;-56
2021/03/19 04:26:39;;;;;;;21.00;9.00;;;0.10;99.90;;;;;;4177149;28;20492;-57
2021/03/19 04:28:40;;;;;;;27.17;9.60;;;0.00;99.90;;;;;;4175865;28;20468;-57
2021/03/19 04:30:44;;;;;;;23.27;8.90;;;0.00;99.90;;;;;;4175724;28;20475;-57
2021/03/19 04:32:46;;;;;;;25.20;10.03;;;0.00;99.90;;;;;;4175768;28;20489;-57
2021/03/19 04:34:47;;;;;;;22.37;9.37;;;-0.10;99.90;;;;;;4175510;28;20541;-57
2021/03/19 04:36:51;;;;;;;30.07;11.23;;;-0.10;99.90;;;;;;4176484;28;20971;-56
2021/03/19 04:38:55;;;;;;;33.10;11.07;;;-0.10;99.90;;;;;;4177445;28;21156;-56
2021/03/19 04:40:57;;;;;;;36.35;11.45;;;-0.20;99.90;;;;;;4176227;28;20817;-56
2021/03/19 04:42:59;;;;;;;29.57;11.23;;;-0.20;99.90;;;;;;4177789;28;20305;-57
2021/03/19 04:45:01;;;;;;;27.77;10.17;;;-0.20;99.90;;;;;;4176199;28;20830;-56
2021/03/19 04:47:04;;;;;;;19.70;8.43;;;-0.30;99.90;;;;;;4178098;28;20473;-56
2021/03/19 04:49:06;;;;;;;24.10;9.93;;;-0.30;99.90;;;;;;4177472;28;20829;-56
2021/03/19 04:51:08;;;;;;;23.07;9.57;;;-0.40;99.90;;;;;;4176614;28;20236;-56
2021/03/19 04:53:09;;;;;;;27.03;9.83;;;-0.40;99.90;;;;;;4177315;28;20602;-55
2021/03/19 04:55:11;;;;;;;24.73;8.90;;;-0.40;99.90;;;;;;4176688;28;20969;-56
2021/03/19 04:57:13;;;;;;;25.27;9.47;;;-0.40;99.90;;;;;;4176045;28;20469;-56
2021/03/19 04:59:15;;;;;;;25.23;9.33;;;-0.40;99.90;;;;;;4176044;28;20467;-56
2021/03/19 05:01:17;;;;;;;23.17;9.05;;;-0.40;99.90;;;;;;4175321;28;20504;-56
2021/03/19 05:03:18;;;;;;;20.77;8.60;;;-0.50;99.90;;;;;;4176059;28;20660;-56
2021/03/19 05:05:22;;;;;;;21.93;9.30;;;-0.50;99.90;;;;;;4175855;28;20307;-56
2021/03/19 05:07:24;;;;;;;19.43;8.03;;;-0.50;99.90;;;;;;4176762;28;21244;-56
2021/03/19 05:09:25;;;;;;;22.90;8.97;;;-0.50;99.90;;;;;;4178486;28;20467;-56
2021/03/19 05:11:26;;;;;;;21.67;9.00;;;-0.50;99.90;;;;;;4180341;28;20479;-58
2021/03/19 05:13:28;;;;;;;24.30;9.47;;;-0.50;99.90;;;;;;4179988;28;20213;-57
2021/03/19 05:15:31;;;;;;;28.33;9.53;;;-0.50;99.90;;;;;;4180687;28;20464;-56
2021/03/19 05:17:34;;;;;;;24.33;9.80;;;-0.50;99.90;;;;;;4179311;28;20582;-56
2021/03/19 05:19:35;;;;;;;22.20;8.87;;;-0.50;99.90;;;;;;4179041;28;20480;-59
2021/03/19 05:21:37;;;;;;;23.73;9.30;;;-0.50;99.90;;;;;;4178848;28;20482;-56
2021/03/19 05:23:38;;;;;;;26.05;9.32;;;-0.60;99.90;;;;;;4180359;28;20210;-56
2021/03/19 05:25:40;;;;;;;21.05;8.82;;;-0.60;99.90;;;;;;4180507;28;20291;-56
2021/03/19 05:27:41;;;;;;;22.77;8.53;;;-0.70;99.90;;;;;;4178415;28;20210;-56
2021/03/19 05:29:43;;;;;;;20.88;8.43;;;-0.70;99.90;;;;;;4179160;28;20473;-56
2021/03/19 05:31:46;;;;;;;18.15;7.90;;;-0.70;99.90;;;;;;4178845;28;20257;-56
2021/03/19 05:33:49;;;;;;;16.48;7.45;;;-0.80;99.90;;;;;;4179875;28;20344;-56
2021/03/19 05:35:51;;;;;;;19.42;7.13;;;-0.80;99.90;;;;;;4179354;28;20210;-55
2021/03/19 05:37:52;;;;;;;18.10;7.22;;;-0.80;99.90;;;;;;4178564;28;20214;-55
2021/03/19 05:39:53;;;;;;;16.73;6.45;;;-0.80;99.90;;;;;;4180334;28;20792;-56
2021/03/19 05:41:55;;;;;;;18.57;7.47;;;-0.80;99.90;;;;;;4178660;28;20299;-55
2021/03/19 05:44:01;;;;;;;18.65;7.72;;;-0.70;99.90;;;;;;4179308;28;20474;-56
2021/03/19 05:46:06;;;;;;;17.05;7.10;;;-0.60;99.90;;;;;;4180168;28;20209;-56
2021/03/19 05:48:10;;;;;;;18.42;7.30;;;-0.60;99.90;;;;;;4179089;28;20310;-56
2021/03/19 05:50:23;;;;;;;17.25;7.15;;;-0.60;99.90;;;;;;4179180;28;20222;-56
2021/03/19 05:52:29;;;;;;;18.10;7.37;;;-0.60;99.90;;;;;;4177771;28;20274;-56
2021/03/19 05:54:38;;;;;;;15.87;6.93;;;-0.60;99.90;;;;;;4178352;28;20475;-56
2021/03/19 05:56:42;;;;;;;20.03;7.90;;;-0.50;99.90;;;;;;4177702;28;20472;-55
2021/03/19 05:58:44;;;;;;;19.77;7.63;;;-0.50;99.90;;;;;;4179134;28;20483;-56
2021/03/19 06:00:46;;;;;;;17.57;7.13;;;-0.50;99.90;;;;;;4179245;28;21062;-58
2021/03/19 06:02:47;;;;;;;24.63;8.80;;;-0.40;99.90;;;;;;4179924;28;20468;-55
2021/03/19 06:05:12;;;;;;;21.42;8.55;;;-0.30;99.90;;;;;;4178546;28;20473;-55
2021/03/19 06:07:14;;;;;;;25.90;9.50;;;-0.30;99.90;;;;;;4179550;28;20308;-55
2021/03/19 06:09:25;;;;;;;25.10;8.55;;;-0.30;99.90;;;;;;4179034;28;20469;-55
2021/03/19 06:11:27;;;;;;;27.27;9.57;;;-0.30;99.90;;;;;;4178102;28;20699;-55
2021/03/19 06:13:41;;;;;;;28.87;9.63;;;-0.10;99.90;;;;;;4178490;28;20594;-55
2021/03/19 06:15:45;;;;;;;23.57;9.33;;;0.00;99.90;;;;;;4177939;28;20467;-55
2021/03/19 06:17:47;;;;;;;26.77;9.40;;;0.10;99.90;;;;;;4176724;28;20496;-55
2021/03/19 06:19:55;;;;;;;23.13;9.33;;;0.20;99.90;;;;;;4179086;28;20479;-59
2021/03/19 06:22:27;;;;;;;22.37;9.30;;;0.30;99.90;;;;;;4179452;28;20946;-55
2021/03/19 06:24:29;;;;;;;18.27;8.47;;;0.40;99.90;;;;;;4154106;28;20468;-55
2021/03/19 06:26:34;;;;;;;21.90;8.47;;;0.40;99.90;;;;;;4178188;28;20477;-55
2021/03/19 06:28:39;;;;;;;23.30;8.40;;;0.50;99.90;;;;;;4178026;28;20496;-59
2021/03/19 06:30:43;;;;;;;19.80;7.67;;;0.50;99.90;;;;;;4178641;28;21221;-55
2021/03/19 06:33:01;;;;;;;17.30;7.90;;;0.50;99.90;;;;;;4179110;28;20530;-55
2021/03/19 06:35:18;;;;;;;27.50;9.70;;;0.50;99.90;;;;;;4185472;28;20464;-54
2021/03/19 06:37:31;;;;;;;26.43;10.40;;;0.50;99.90;;;;;;4185649;28;20479;-55
2021/03/19 06:39:43;;;;;;;26.73;10.07;;;0.50;99.90;;;;;;4179313;28;20526;-55
2021/03/19 06:42:01;;;;;;;23.97;9.53;;;0.50;99.90;;;;;;4177533;28;20487;-55
2021/03/19 06:44:16;;;;;;;22.60;9.07;;;0.60;99.90;;;;;;4177775;28;20469;-54
2021/03/19 06:46:24;;;;;;;22.07;9.30;;;0.80;99.90;;;;;;4177451;28;20479;-55
2021/03/19 06:48:33;;;;;;;24.43;9.73;;;0.80;99.90;;;;;;4179169;28;20967;-55
2021/03/19 06:50:39;;;;;;;20.33;9.00;;;0.90;99.90;;;;;;4178908;28;20466;-55
2021/03/19 06:52:42;;;;;;;19.90;8.07;;;1.00;99.90;;;;;;4177570;28;20504;-55
2021/03/19 06:54:48;;;;;;;21.40;8.93;;;1.10;99.90;;;;;;4178200;28;20480;-56
2021/03/19 06:57:08;;;;;;;24.63;9.87;;;1.20;99.90;;;;;;4178049;28;20987;-56
2021/03/19 06:59:24;;;;;;;26.33;11.00;;;1.30;99.90;;;;;;4176809;28;20466;-57
2021/03/19 07:01:38;;;;;;;24.17;10.37;;;1.40;99.90;;;;;;4173268;28;20493;-57
2021/03/19 07:04:16;;;;;;;25.92;11.82;;;1.40;99.90;;;;;;4175486;28;20570;-57
2021/03/19 07:06:46;;;;;;;23.53;10.27;;;1.60;99.90;;;;;;4173959;28;20271;-57
2021/03/19 07:08:53;;;;;;;21.47;9.80;;;1.70;99.90;;;;;;4176425;28;20479;-57
2021/03/19 07:11:27;;;;;;;21.60;10.13;;;1.80;99.90;;;;;;4176554;28;20482;-57
2021/03/19 07:13:52;;;;;;;22.50;10.17;;;1.90;99.90;;;;;;4176099;28;20493;-57
2021/03/19 07:16:01;;;;;;;20.70;9.90;;;2.10;99.90;;;;;;4176570;28;20496;-57
2021/03/19 07:18:08;;;;;;;27.87;11.03;;;2.20;99.90;;;;;;4176003;28;20466;-58
2021/03/19 07:20:21;;;;;;;27.33;11.10;;;2.20;99.90;;;;;;4174829;28;20533;-57
2021/03/19 07:22:34;;;;;;;23.73;10.77;;;2.30;99.90;;;;;;4175298;28;20479;-57
2021/03/19 07:24:59;;;;;;;25.23;10.97;;;2.40;99.90;;;;;;4177713;28;20482;-57
2021/03/19 07:27:09;;;;;;;22.57;10.10;;;2.40;99.90;;;;;;4178151;28;21364;-58
2021/03/19 07:29:32;;;;;;;22.03;9.90;;;2.40;99.90;;;;;;4177708;28;20471;-57
2021/03/19 07:31:47;;;;;;;23.27;10.00;;;2.50;99.90;;;;;;4177044;28;20490;-57
2021/03/19 07:34:38;;;;;;;25.07;9.93;;;2.50;99.90;;;;;;4176738;28;20469;-57
2021/03/19 07:36:51;;;;;;;21.00;8.13;;;2.60;99.90;;;;;;4127413;28;21016;-57
2021/03/19 07:39:38;;;;;;;24.43;10.20;;;2.70;99.90;;;;;;4126029;28;20480;-57
2021/03/19 07:42:01;;;;;;;24.23;12.35;;;2.80;99.90;;;;;;4142387;28;20952;-58
2021/03/19 07:44:24;;;;;;;25.40;12.45;;;3.00;99.90;;;;;;4175121;28;20460;-57
2021/03/19 07:46:31;;;;;;;20.90;9.60;;;3.20;99.90;;;;;;4174904;28;20202;-58
2021/03/19 07:48:46;;;;;;;22.85;9.63;;;3.20;99.90;;;;;;4175810;28;22153;-57
2021/03/19 07:51:04;;;;;;;20.20;10.50;;;3.30;99.90;;;;;;4175709;28;20933;-57
2021/03/19 07:53:42;;;;;;;18.10;8.23;;;3.50;99.90;;;;;;4175227;28;20222;-57
2021/03/19 07:55:52;;;;;;;16.10;7.63;;;3.60;99.90;;;;;;4175447;28;20464;-57
2021/03/19 07:58:02;;;;;;;15.63;7.20;;;3.60;99.90;;;;;;4175723;28;20478;-57
2021/03/19 08:00:11;;;;;;;18.13;7.75;;;3.60;99.90;;;;;;4174776;28;20454;-57
2021/03/19 08:02:32;;;;;;;14.10;6.53;;;3.60;99.90;;;;;;4175764;28;20255;-57
2021/03/19 08:04:38;;;;;;;13.73;6.40;;;3.60;99.90;;;;;;4176029;28;20472;-59
2021/03/19 08:06:45;;;;;;;12.23;6.17;;;3.70;99.90;;;;;;4175970;28;20472;-58
2021/03/19 08:08:53;;;;;;;19.77;6.67;;;3.60;99.90;;;;;;4175233;28;20487;-57
2021/03/19 08:11:02;;;;;;;14.83;6.73;;;3.60;99.90;;;;;;4175496;28;20485;-58
2021/03/19 08:13:24;;;;;;;17.00;7.30;;;3.70;99.90;;;;;;4173656;28;20493;-58
2021/03/19 08:15:34;;;;;;;14.60;6.37;;;3.80;99.90;;;;;;4176166;28;20305;-58
2021/03/19 08:17:46;;;;;;;13.50;6.40;;;3.80;99.90;;;;;;4175845;28;20471;-57
2021/03/19 08:19:55;;;;;;;14.23;5.80;;;3.90;99.90;;;;;;4176844;28;20473;-58
2021/03/19 08:22:08;;;;;;;13.18;6.13;;;3.80;99.90;;;;;;4174651;28;21118;-57
2021/03/19 08:24:24;;;;;;;11.20;5.27;;;3.80;99.90;;;;;;4174143;28;20210;-59
2021/03/19 08:26:29;;;;;;;11.77;6.25;;;3.70;99.90;;;;;;4173786;28;20453;-58
2021/03/19 08:28:39;;;;;;;10.63;5.40;;;3.70;99.90;;;;;;4173553;28;21009;-59
2021/03/19 08:30:48;;;;;;;10.70;5.00;;;3.70;99.90;;;;;;4173498;28;20547;-57
2021/03/19 08:33:07;;;;;;;10.23;4.67;;;3.80;99.90;;;;;;4174580;28;20506;-58
2021/03/19 08:35:18;;;;;;;13.07;5.10;;;3.80;99.90;;;;;;4176059;28;20974;-58
2021/03/19 08:37:31;;;;;;;11.70;5.17;;;3.80;99.90;;;;;;4175864;28;20470;-58
2021/03/19 08:39:37;;;;;;;9.77;4.80;;;3.80;99.90;;;;;;4175061;28;20489;-57
2021/03/19 08:41:43;;;;;;;11.18;5.63;;;3.80;99.90;;;;;;4174700;28;20455;-58
2021/03/19 08:43:48;;;;;;;10.13;5.13;;;3.80;99.90;;;;;;4174861;28;20214;-58
2021/03/19 08:45:58;;;;;;;9.85;5.30;;;3.80;99.90;;;;;;4180152;28;20477;-58
2021/03/19 08:48:02;;;;;;;9.13;4.90;;;3.90;99.90;;;;;;4182979;28;20213;-59
2021/03/19 08:50:20;;;;;;;12.50;4.40;;;3.90;99.60;;;;;;4182382;28;20471;-59
2021/03/19 08:52:30;;;;;;;11.03;4.30;;;3.90;99.10;;;;;;4187524;28;20487;-59
2021/03/19 08:54:32;;;;;;;12.45;4.88;;;3.90;99.40;;;;;;4178115;28;20459;-58
2021/03/19 08:56:34;;;;;;;10.23;4.70;;;3.90;99.90;;;;;;4180388;28;20288;-58
2021/03/19 08:58:51;;;;;;;14.13;5.88;;;4.00;99.80;;;;;;4179669;28;20578;-58
2021/03/19 09:00:56;;;;;;;11.15;5.45;;;4.00;99.90;;;;;;4175893;28;20583;-59
2021/03/19 09:02:59;;;;;;;11.03;4.60;;;4.10;99.20;;;;;;4177614;28;20230;-59
2021/03/19 09:05:17;;;;;;;10.93;4.80;;;4.20;97.90;;;;;;4179790;28;21168;-59
2021/03/19 09:07:23;;;;;;;9.95;4.75;;;4.10;97.30;;;;;;4178288;28;20455;-58
2021/03/19 09:09:35;;;;;;;12.00;5.50;;;4.20;97.60;;;;;;4178117;28;20453;-59
2021/03/19 09:12:06;;;;;;;11.00;4.67;;;4.30;97.90;;;;;;4178951;28;20210;-59
2021/03/19 09:14:35;;;;;;;9.77;4.40;;;4.40;96.30;;;;;;4178547;28;20474;-57
2021/03/19 09:16:54;;;;;;;10.17;5.03;;;4.30;96.00;;;;;;4178149;28;20477;-57
2021/03/19 09:18:57;;;;;;;9.77;4.27;;;4.30;95.80;;;;;;4179625;28;20500;-58
2021/03/19 09:21:05;;;;;;;8.83;4.17;;;4.30;96.60;;;;;;4176985;28;20480;-58
2021/03/19 09:23:21;;;;;;;10.80;4.20;;;4.40;96.40;;;;;;4177488;28;20491;-59
2021/03/19 09:25:49;;;;;;;9.23;4.40;;;4.40;96.10;;;;;;4178675;28;20677;-58
2021/03/19 09:28:17;;;;;;;9.67;4.70;;;4.30;95.80;;;;;;4175623;28;20884;-58
2021/03/19 09:30:33;;;;;;;9.57;4.67;;;4.10;95.50;;;;;;4176834;28;20468;-58
2021/03/19 09:32:40;;;;;;;13.07;4.97;;;4.10;97.00;;;;;;4178690;28;20488;-59
2021/03/19 09:35:04;;;;;;;11.17;5.10;;;4.20;97.30;;;;;;4178085;28;20480;-58
2021/03/19 09:37:32;;;;;;;10.57;4.63;;;4.30;96.50;;;;;;4178859;28;20983;-58
2021/03/19 09:40:14;;;;;;;19.23;6.93;;;4.40;96.10;;;;;;4177448;28;20499;-57
2021/03/19 09:42:44;;;;;;;11.53;4.67;;;4.50;97.10;;;;;;4147634;28;20559;-57
2021/03/19 09:44:46;;;;;;;10.02;4.78;;;4.70;96.40;;;;;;4170291;28;21140;-59
2021/03/19 09:46:59;;;;;;;10.82;4.68;;;4.90;95.50;;;;;;4175487;28;20548;-58
2021/03/19 09:49:03;;;;;;;9.00;5.43;;;5.10;93.00;;;;;;4176374;28;20458;-57
2021/03/19 09:51:31;;;;;;;9.43;4.63;;;5.10;93.40;;;;;;4176880;28;20213;-57
2021/03/19 09:53:36;;;;;;;16.30;7.70;;;5.10;93.20;;;;;;4171422;28;20503;-64
2021/03/19 09:55:40;;;;;;;10.47;4.90;;;5.10;92.90;;;;;;4178915;28;20786;-58
2021/03/19 09:57:43;;;;;;;9.52;5.03;;;5.10;93.30;;;;;;4178491;28;20479;-58
2021/03/19 09:59:45;;;;;;;11.45;5.80;;;5.20;92.20;;;;;;4175651;28;20485;-58
2021/03/19 10:01:47;;;;;;;8.43;5.20;;;5.30;91.90;;;;;;4176326;28;20505;-58
2021/03/19 10:03:51;;;;;;;9.83;5.13;;;5.50;91.50;;;;;;4176556;28;20222;-57
2021/03/19 10:05:52;;;;;;;8.37;4.47;;;5.70;91.60;;;;;;4176996;28;20478;-57
2021/03/19 10:07:55;;;;;;;9.70;4.20;;;5.80;91.60;;;;;;4176411;28;20466;-58
2021/03/19 10:09:58;;;;;;;10.37;4.10;;;5.80;90.50;;;;;;4175738;28;20483;-56
2021/03/19 10:12:04;;;;;;;9.20;4.57;;;5.60;88.30;;;;;;4175453;28;20470;-57
2021/03/19 10:14:15;;;;;;;9.43;4.60;;;5.30;89.40;;;;;;4175459;28;21335;-57
2021/03/19 10:16:24;;;;;;;7.73;4.43;;;5.00;91.30;;;;;;4176229;28;20492;-57
2021/03/19 10:18:31;;;;;;;12.90;7.28;;;4.80;91.50;;;;;;4176771;28;20469;-56
2021/03/19 10:20:36;;;;;;;16.23;5.70;;;4.70;91.70;;;;;;4178024;28;21208;-57
2021/03/19 10:22:42;;;;;;;11.53;5.13;;;4.40;91.80;;;;;;4176766;28;21071;-57
2021/03/19 10:24:44;;;;;;;8.70;4.30;;;4.20;92.60;;;;;;4176467;28;20579;-58
2021/03/19 10:26:50;;;;;;;8.57;4.10;;;3.90;92.20;;;;;;4177246;28;21025;-58
2021/03/19 10:29:00;;;;;;;9.50;4.33;;;3.80;93.30;;;;;;4178007;28;20468;-57
2021/03/19 10:31:05;;;;;;;9.10;4.85;;;3.70;94.00;;;;;;4177812;28;20481;-57
2021/03/19 10:33:18;;;;;;;8.25;4.88;;;3.80;93.50;;;;;;4176440;28;20455;-57
2021/03/19 10:35:30;;;;;;;8.23;4.30;;;3.90;93.70;;;;;;4176922;28;20223;-58
2021/03/19 10:37:37;;;;;;;6.77;3.80;;;3.90;92.60;;;;;;4175210;28;20473;-57
2021/03/19 10:39:45;;;;;;;35.10;14.03;;;4.00;92.70;;;;;;4177441;28;20506;-58
2021/03/19 10:41:51;;;;;;;15.33;6.87;;;4.10;93.30;;;;;;4177273;28;20977;-58
2021/03/19 10:43:57;;;;;;;13.47;6.03;;;4.30;94.30;;;;;;4175874;28;20538;-58
2021/03/19 10:46:02;;;;;;;12.45;5.22;;;4.70;93.00;;;;;;4175498;28;20537;-58
2021/03/19 10:48:17;;;;;;;9.77;4.47;;;5.00;92.30;;;;;;4176795;28;20224;-58
2021/03/19 10:50:25;;;;;;;7.73;3.73;;;5.30;91.20;;;;;;4176005;28;21214;-58
2021/03/19 10:52:33;;;;;;;5.90;3.30;;;5.50;88.10;;;;;;4175561;28;20498;-58
2021/03/19 10:54:41;;;;;;;13.43;6.03;;;5.70;85.20;;;;;;4175800;28;20578;-58
2021/03/19 10:56:46;;;;;;;10.13;4.70;;;5.80;83.30;;;;;;4175930;28;20587;-57
2021/03/19 10:58:51;;;;;;;18.00;7.03;;;6.00;79.70;;;;;;4176445;28;20476;-57
2021/03/19 11:00:54;;;;;;;10.27;5.20;;;6.10;80.20;;;;;;4176088;28;21133;-57
2021/03/19 11:02:57;;;;;;;24.93;10.67;;;6.30;72.70;;;;;;4176477;28;20529;-58
2021/03/19 11:05:12;;;;;;;12.60;5.57;;;6.40;75.80;;;;;;4176307;28;21309;-57
2021/03/19 11:07:33;;;;;;;22.77;10.73;;;6.50;74.10;;;;;;4173386;28;20934;-57